WetterOnline ( https://www.wetteronline.de )

Wetter aktuell Neusorg

Aktuelles Wetter: Wunsiedel-Schönbrunn (622m)

6-stündlich | Neueste Meldungen
Ortszeit Temperatur Wetter
Do, 26.11. 19:00 -2.1° C Nebel
Do, 26.11. 13:00 -1.0° C bedeckt
Do, 26.11. 7:00 -2.5° C Nebel
Do, 26.11. 1:00 -2.4° C Nebel
Mi, 25.11. 19:00 -1.7° C Nebel
Mi, 25.11. 13:00 -0.8° C Nebel
Mi, 25.11. 7:00 -1.8° C Nebel
Mi, 25.11. 1:00 -0.6° C bedeckt
Ortszeit Temperatur Wetter
Do, 26.11. 22:30 -2.7° C Nebel
Do, 26.11. 22:20 -2.7° C Nebel
Do, 26.11. 22:10 -2.7° C Nebel
Do, 26.11. 22:00 -2.7° C Nebel
Do, 26.11. 21:50 -2.7° C Nebel
Do, 26.11. 21:40 -2.7° C Nebel
Do, 26.11. 21:30 -2.5° C Nebel
Do, 26.11. 21:00 -2.4° C Nebel
Ortszeit Relative Feuchte Sichtweite
Do, 26.11. 19:00 99% 100 m
Do, 26.11. 13:00 98% 3.1 km
Do, 26.11. 7:00 98% 100 m
Do, 26.11. 1:00 99% 100 m
Mi, 25.11. 19:00 99% 0.2 km
Mi, 25.11. 13:00 99% 0.4 km
Mi, 25.11. 7:00 100% 0.2 km
Mi, 25.11. 1:00 97% 6 km
Ortszeit Relative Feuchte Sichtweite
Do, 26.11. 22:30 99% 100 m
Do, 26.11. 22:20 99% -
Do, 26.11. 22:10 99% -
Do, 26.11. 22:00 98% 100 m
Do, 26.11. 21:50 98% -
Do, 26.11. 21:40 98% -
Do, 26.11. 21:30 99% 100 m
Do, 26.11. 21:00 99% 100 m
Ortszeit Niederschlagsmenge Niederschlagsart
Do, 26.11. 19:00 0.0 l/m2 in 12 Std. -
Do, 26.11. 13:00 0.0 l/m2 in 6 Std. -
Do, 26.11. 7:00 0.0 l/m2 in 12 Std. -
Do, 26.11. 1:00 0.0 l/m2 in 6 Std. -
Mi, 25.11. 19:00 0.0 l/m2 in 12 Std. -
Mi, 25.11. 13:00 0.0 l/m2 in 6 Std. -
Mi, 25.11. 7:00 0.0 l/m2 in 12 Std. -
Mi, 25.11. 1:00 0.0 l/m2 in 6 Std. -
Ortszeit Niederschlagsmenge Niederschlagsart
Do, 26.11. 22:30 0.0 l/m2 in 1 Std. -
Do, 26.11. 22:20 keine Meldung -
Do, 26.11. 22:10 keine Meldung -
Do, 26.11. 22:00 0.0 l/m2 in 1 Std. -
Do, 26.11. 21:50 keine Meldung -
Do, 26.11. 21:40 keine Meldung -
Do, 26.11. 21:30 0.0 l/m2 in 1 Std. -
Do, 26.11. 21:00 0.0 l/m2 in 1 Std. -
Ortszeit Stärke Spitze Richtung
km/h Bft. km/h Grad Sektor
Do, 26.11. 19:00 4 1 22 230° SW
Do, 26.11. 13:00 11 2 22 220° SW
Do, 26.11. 7:00 11 2 22 210° SW
Do, 26.11. 1:00 13 3 22 190° S
Mi, 25.11. 19:00 4 1 22 200° S
Mi, 25.11. 13:00 11 2 25 210° SW
Mi, 25.11. 7:00 11 2 22 210° SW
Mi, 25.11. 1:00 13 3 20 210° SW
Ortszeit Stärke Spitze Richtung
km/h Bft. km/h Grad Sektor
Do, 26.11. 22:30 4 1 7 180° S
Do, 26.11. 22:20 4 1 - 180° S
Do, 26.11. 22:10 6 1 - 180° S
Do, 26.11. 22:00 4 1 7 180° S
Do, 26.11. 21:50 4 1 - 180° S
Do, 26.11. 21:40 4 1 - 160° S
Do, 26.11. 21:30 4 1 7 170° S
Do, 26.11. 21:00 4 1 11 200° S
Ortszeit Untergrenze Bedeckung Gattung
total tief tief mittel hoch
Do, 26.11. 19:00 <30 m 8/8 0/8 - - -
Do, 26.11. 13:00 60 m 8/8 8/8 - - -
Do, 26.11. 7:00 <30 m 8/8 0/8 - - -
Do, 26.11. 1:00 <30 m 8/8 0/8 - - -
Mi, 25.11. 19:00 <30 m 8/8 0/8 - - -
Mi, 25.11. 13:00 <30 m 8/8 0/8 - - -
Mi, 25.11. 7:00 <30 m 8/8 0/8 - - -
Mi, 25.11. 1:00 60 m 8/8 8/8 - - -
Ortszeit Bedeckungsgrad in Achtel und Wolkenuntergrenze
Do, 26.11. 22:30 8(<30m)
Do, 26.11. 22:20 8(<30m)
Do, 26.11. 22:10 8(<30m)
Do, 26.11. 22:00 8(<30m)
Do, 26.11. 21:50 8(<30m)
Do, 26.11. 21:40 8(<30m)
Do, 26.11. 21:30 8(<30m)
Do, 26.11. 21:00 8(<30m)
Ortszeit Luftdruck NN (hPa) Tendenz (hPa in 3 Std.)
Do, 26.11. 19:00 1025 + 0,4
Do, 26.11. 13:00 1025 - 0,5
Do, 26.11. 7:00 1026 + 0,2
Do, 26.11. 1:00 1026 + 0,4
Mi, 25.11. 19:00 1025 + 0,7
Mi, 25.11. 13:00 1024 - 0,5
Mi, 25.11. 7:00 1024 + 0,2
Mi, 25.11. 1:00 1025 - 0,8
Ortszeit Luftdruck NN (hPa) Tendenz (hPa in 3 Std.)
Do, 26.11. 22:30 1026 + 0,1
Do, 26.11. 22:20 1026 keine Meldung
Do, 26.11. 22:10 1026 keine Meldung
Do, 26.11. 22:00 1026 0,0
Do, 26.11. 21:50 1026 keine Meldung
Do, 26.11. 21:40 1026 keine Meldung
Do, 26.11. 21:30 1025 - 0,1
Do, 26.11. 21:00 1026 0,0
Ortszeit Schneehöhe (cm)
Do, 26.11. 19:00 0
Do, 26.11. 13:00 0
Do, 26.11. 7:00 0
Do, 26.11. 1:00 0
Mi, 25.11. 19:00 0
Mi, 25.11. 13:00 0
Mi, 25.11. 7:00 0
Mi, 25.11. 1:00 0
Ortszeit Schneehöhe (cm)
Do, 26.11. 22:30 0
Do, 26.11. 22:20 0
Do, 26.11. 22:10 0
Do, 26.11. 22:00 0
Do, 26.11. 21:50 0
Do, 26.11. 21:40 0
Do, 26.11. 21:30 0
Do, 26.11. 21:00 0
Link zu dieser Seite / Seite empfehlen

Das Wetter in ...